Bookmark and Share
Track history (hours):
 

Opal Express

Last reported at 2014-Mar-27 19:30 UTC. Time now 2014-Apr-18 03:08 UTC.
Position N 20°30' W 110°45'.
Warning: this ship's position is 21 days out of date.

Length 180 m; draft 12.5 m.

Type: Ship (hazmat cat A). MMSI: 538002598.

NotesDate/timePositionNaut miles runAvg speedWind from/ knotsBaromVisibWave heightAir tempDewpointWater temp
2014-Mar-27 19:30N 20°30' W 110°45'  
2014-Mar-25 09:05N 29°25' W 120°50'1012.9
2014-Mar-25 08:18N 29°33' W 120°58'8913.1
2014-Mar-25 01:33N 30°38' W 122°07'11612.9
2014-Mar-24 16:35N 32°13' W 123°25'  
2014-Mar-21 13:33N 48°31' W 125°01'2411.7
2014-Mar-21 11:31N 48°26' W 124°26'1111.8
2014-Mar-21 10:33N 48°21' W 124°10'1211.9
2014-Mar-21 09:33N 48°17' W 123°53'1313.0
2014-Mar-21 08:33N 48°15' W 123°34'9 9.1
2014-Mar-21 07:33N 48°09' W 123°23'1010.2
2014-Mar-21 06:33N 48°15' W 123°10'1212.1
2014-Mar-21 05:33N 48°21' W 122°55'1110.2
2014-Mar-21 04:32N 48°29' W 122°45'7 7.5
2014-Mar-21 03:33N 48°36' W 122°45'7 6.6
2014-Mar-21 02:33N 48°43' W 122°45'9 8.6
2014-Mar-21 01:33N 48°52' W 122°46'0 0.0
2014-Mar-20 15:16N 48°52' W 122°46'0 0.0
2014-Mar-20 13:28N 48°52' W 122°46'0 0.0
2014-Mar-20 12:22N 48°52' W 122°46'0 0.0
2014-Mar-20 11:28N 48°52' W 122°46'0 0.0
2014-Mar-20 10:16N 48°52' W 122°46'0 0.0
2014-Mar-20 08:28N 48°52' W 122°46'0 0.0
2014-Mar-20 07:04N 48°52' W 122°46'0 0.0
2014-Mar-20 06:28N 48°52' W 122°46'0 0.0
2014-Mar-20 05:22N 48°52' W 122°46'0 0.0
2014-Mar-20 04:28N 48°52' W 122°46'0 0.0
2014-Mar-20 03:19N 48°52' W 122°46'0 0.0
2014-Mar-19 16:16N 48°52' W 122°46'0 0.0
2014-Mar-19 15:16N 48°52' W 122°46'0 0.0
2014-Mar-19 14:28N 48°52' W 122°46'0 0.0
2014-Mar-19 13:28N 48°52' W 122°46'0 0.0
2014-Mar-19 12:28N 48°52' W 122°46'0 0.0
2014-Mar-19 11:28N 48°52' W 122°46'0 0.0
2014-Mar-19 10:28N 48°52' W 122°46'0 0.0
2014-Mar-19 09:22N 48°52' W 122°46'0 0.0
2014-Mar-19 08:28N 48°52' W 122°46'0 0.0
2014-Mar-19 06:10N 48°52' W 122°46'0 0.0
2014-Mar-19 05:04N 48°52' W 122°46'0 0.1
2014-Mar-19 04:31N 48°52' W 122°46'0 0.0
2014-Mar-19 03:22N 48°52' W 122°46'0 0.0
2014-Mar-19 02:28N 48°52' W 122°46'0 0.0
2014-Mar-18 22:33N 48°52' W 122°46'1 1.2
2014-Mar-18 21:34N 48°51' W 122°45'0 0.3
2014-Mar-18 20:31N 48°51' W 122°45'0 0.1
2014-Mar-18 19:25N 48°50' W 122°45'0 0.1
2014-Mar-18 18:31N 48°50' W 122°45'5 4.9
2014-Mar-18 17:34N 48°46' W 122°46'1211.8
2014-Mar-18 16:32N 48°34' W 122°45'1211.9
2014-Mar-18 15:33N 48°23' W 122°51'1413.4
2014-Mar-18 14:32N 48°15' W 123°08'1312.9
2014-Mar-18 13:33N 48°08' W 123°24'1 0.9
2014-Mar-18 12:32N 48°08' W 123°25'0 0.0
2014-Mar-18 11:32N 48°08' W 123°25'0 0.1
2014-Mar-18 10:32N 48°08' W 123°25'0 0.0
2014-Mar-18 09:32N 48°08' W 123°25'0 0.0
2014-Mar-18 08:32N 48°08' W 123°25'0 0.0
2014-Mar-18 07:32N 48°08' W 123°25'0 0.1
2014-Mar-18 06:32N 48°08' W 123°25'0 0.1
2014-Mar-18 05:32N 48°08' W 123°25'0 0.0
2014-Mar-18 04:32N 48°08' W 123°25'0 0.0
2014-Mar-18 03:29N 48°08' W 123°25'0 0.0
2014-Mar-18 02:32N 48°08' W 123°25'0 0.0
2014-Mar-18 01:32N 48°08' W 123°25'0 0.0
2014-Mar-18 00:32N 48°08' W 123°25'0 0.0
2014-Mar-17 23:32N 48°08' W 123°25'0 0.1
2014-Mar-17 22:32N 48°08' W 123°25'0 0.0
2014-Mar-17 21:32N 48°08' W 123°25'0 0.1
2014-Mar-17 20:32N 48°08' W 123°25'0 0.0
2014-Mar-17 19:32N 48°08' W 123°25'  

Dump ship's entire track history

sailing weather and tide predictions

Opal Express — V7KB8 — position and weather